createdAt,value
2018-12-24T00:00:01.489Z,4.40
2018-12-24T00:02:40.415Z,3.10
2018-12-24T00:05:28.300Z,3.80
2018-12-24T00:08:09.592Z,4.33
2018-12-24T00:10:50.477Z,3.77
2018-12-24T00:13:30.898Z,4.40
2018-12-24T00:16:11.284Z,3.57
2018-12-24T00:18:51.851Z,4.63
2018-12-24T00:21:32.267Z,4.17
2018-12-24T00:24:13.396Z,3.00
2018-12-24T00:26:54.593Z,3.30
2018-12-24T00:29:35.411Z,3.80
2018-12-24T00:32:15.842Z,3.47
2018-12-24T00:34:54.756Z,2.80
2018-12-24T00:37:42.649Z,2.20
2018-12-24T00:40:23.093Z,2.80
2018-12-24T00:43:04.081Z,3.60
2018-12-24T00:45:45.149Z,3.00
2018-12-24T00:48:26.171Z,3.30
2018-12-24T00:51:07.341Z,3.13
2018-12-24T00:53:47.686Z,2.87
2018-12-24T00:56:28.695Z,3.57
2018-12-24T00:59:09.550Z,2.67
2018-12-24T01:01:50.636Z,2.80
2018-12-24T01:04:31.109Z,2.30
2018-12-24T01:07:09.947Z,3.10
2018-12-24T01:09:57.823Z,3.13
2018-12-24T01:12:38.564Z,2.50
2018-12-24T01:15:17.311Z,3.80
2018-12-24T01:17:58.069Z,4.27
2018-12-24T01:20:38.419Z,3.60
2018-12-24T01:23:19.575Z,2.57
2018-12-24T01:25:59.984Z,3.47
2018-12-24T01:28:41.132Z,3.50
2018-12-24T01:31:19.988Z,2.67
2018-12-24T01:34:07.858Z,3.93
2018-12-24T01:36:48.452Z,4.70
2018-12-24T01:39:29.220Z,3.67
2018-12-24T01:42:08.183Z,3.93
2018-12-24T01:44:56.043Z,2.60
2018-12-24T01:47:34.932Z,4.00
2018-12-24T01:50:22.824Z,3.93
2018-12-24T01:53:01.652Z,4.77
2018-12-24T01:55:49.546Z,4.10
2018-12-24T01:58:30.017Z,4.10
2018-12-24T02:01:11.127Z,3.87
2018-12-24T02:03:51.640Z,4.33
2018-12-24T02:06:32.445Z,4.70
2018-12-24T02:09:13.704Z,4.77
2018-12-24T02:11:42.228Z,4.60
2018-12-24T02:14:30.145Z,3.93
2018-12-24T02:17:18.025Z,4.47
2018-12-24T02:19:58.338Z,4.67
2018-12-24T02:22:38.703Z,4.23
2018-12-24T02:25:19.820Z,4.63
2018-12-24T02:28:00.960Z,5.33
2018-12-24T02:30:41.983Z,4.83
2018-12-24T02:33:22.787Z,4.60
2018-12-24T02:36:04.033Z,4.50
2018-12-24T02:38:45.016Z,4.50
2018-12-24T02:41:26.061Z,4.60
2018-12-24T02:44:07.031Z,4.23
2018-12-24T02:46:47.834Z,4.10
2018-12-24T02:49:28.800Z,3.53
2018-12-24T02:52:09.862Z,4.27
2018-12-24T02:54:51.065Z,3.70
2018-12-24T02:57:29.933Z,4.30
2018-12-24T03:00:10.557Z,4.80
2018-12-24T03:02:51.119Z,3.97
2018-12-24T03:05:31.636Z,3.50
2018-12-24T03:08:12.100Z,3.93
2018-12-24T03:10:52.706Z,3.57
2018-12-24T03:13:33.091Z,3.10
2018-12-24T03:16:13.376Z,4.17
2018-12-24T03:18:53.811Z,3.47
2018-12-24T03:21:35.096Z,3.33
2018-12-24T03:24:13.907Z,3.63
2018-12-24T03:27:01.777Z,3.60
2018-12-24T03:29:42.920Z,3.90
2018-12-24T03:32:23.906Z,3.63
2018-12-24T03:35:04.805Z,4.17
2018-12-24T03:37:45.134Z,3.87
2018-12-24T03:40:24.104Z,3.23
2018-12-24T03:43:12.925Z,2.50
2018-12-24T03:45:54.941Z,3.30
2018-12-24T03:48:35.969Z,3.50
2018-12-24T03:51:16.893Z,2.77
2018-12-24T03:53:58.081Z,3.30
2018-12-24T03:56:38.576Z,3.00
2018-12-24T04:02:15.857Z,2.50
2018-12-24T04:05:03.831Z,3.00
2018-12-24T04:07:44.595Z,3.17
2018-12-24T04:10:25.820Z,3.33
2018-12-24T04:13:06.834Z,2.73
2018-12-24T04:15:48.172Z,2.60
2018-12-24T04:18:28.641Z,2.30
2018-12-24T04:21:09.704Z,2.37
2018-12-24T04:23:50.074Z,2.77
2018-12-24T04:26:31.161Z,2.80
2018-12-24T04:29:12.406Z,3.40
2018-12-24T04:31:53.641Z,2.07
2018-12-24T04:34:34.371Z,2.10
2018-12-24T04:37:14.769Z,2.50
2018-12-24T04:39:55.958Z,2.30
2018-12-24T04:42:37.018Z,1.30
2018-12-24T04:45:18.260Z,1.50
2018-12-24T04:47:59.630Z,1.03
2018-12-24T04:50:40.653Z,1.40
2018-12-24T04:53:21.461Z,1.83
2018-12-24T04:56:02.228Z,1.43
2018-12-24T04:58:43.233Z,1.73
2018-12-24T05:01:24.218Z,1.30
2018-12-24T05:04:05.169Z,0.90
2018-12-24T05:06:46.427Z,1.40
2018-12-24T05:09:14.989Z,1.30
2018-12-24T05:12:02.886Z,1.13
2018-12-24T05:14:50.750Z,1.20
2018-12-24T05:17:31.768Z,1.27
2018-12-24T05:20:12.849Z,1.63
2018-12-24T05:22:53.863Z,1.40
2018-12-24T05:25:34.271Z,0.90
2018-12-24T05:28:13.044Z,1.27
2018-12-24T05:30:53.477Z,1.17
2018-12-24T05:33:34.676Z,1.40
2018-12-24T05:36:15.756Z,1.00
2018-12-24T05:38:56.249Z,1.10
2018-12-24T05:41:36.916Z,1.17
2018-12-24T05:44:17.853Z,1.37
2018-12-24T05:46:59.009Z,1.47
2018-12-24T05:49:40.175Z,1.07
2018-12-24T05:52:21.201Z,1.40
2018-12-24T05:55:02.141Z,1.00
2018-12-24T05:57:43.296Z,1.20
2018-12-24T06:00:24.259Z,1.10
2018-12-24T06:03:05.263Z,1.47
2018-12-24T06:05:45.628Z,1.20
2018-12-24T06:08:26.652Z,1.10
2018-12-24T06:11:07.893Z,1.60
2018-12-24T06:13:48.792Z,1.30
2018-12-24T06:16:29.878Z,1.30
2018-12-24T06:19:10.928Z,1.60
2018-12-24T06:21:52.160Z,1.20
2018-12-24T06:24:33.229Z,1.20
2018-12-24T06:27:13.572Z,1.10
2018-12-24T06:29:54.081Z,1.60
2018-12-24T06:32:34.577Z,1.80
2018-12-24T06:35:15.256Z,1.87
2018-12-24T06:37:56.384Z,1.40
2018-12-24T06:40:37.068Z,1.43
2018-12-24T06:43:18.026Z,1.37
2018-12-24T06:45:59.163Z,1.60
2018-12-24T06:48:40.185Z,1.20
2018-12-24T06:51:20.654Z,1.83
2018-12-24T06:54:01.194Z,1.50
2018-12-24T06:56:42.324Z,1.57
2018-12-24T06:59:23.021Z,1.20
2018-12-24T07:02:04.133Z,1.43
2018-12-24T07:04:44.448Z,1.50
2018-12-24T07:07:23.341Z,2.53
2018-12-24T07:10:04.374Z,1.57
2018-12-24T07:12:44.663Z,1.53
2018-12-24T07:15:23.542Z,2.00
2018-12-24T07:18:11.448Z,1.90
2018-12-24T07:20:52.626Z,1.67
2018-12-24T07:23:33.945Z,1.43
2018-12-24T07:26:14.462Z,1.23
2018-12-24T07:28:59.146Z,1.37
2018-12-24T07:31:38.545Z,1.20
2018-12-24T07:34:19.718Z,1.23
2018-12-24T07:37:00.876Z,1.10
2018-12-24T07:39:41.860Z,1.93
2018-12-24T07:42:22.468Z,1.17
2018-12-24T07:45:03.698Z,1.60
2018-12-24T07:47:44.324Z,1.27
2018-12-24T07:50:24.768Z,1.90
2018-12-24T07:53:06.076Z,1.20
2018-12-24T07:55:47.139Z,1.83
2018-12-24T07:58:28.475Z,1.20
2018-12-24T08:07:05.318Z,1.73
2018-12-24T08:09:53.329Z,1.43
2018-12-24T08:12:33.828Z,1.73
2018-12-24T08:15:15.019Z,1.67
2018-12-24T08:17:55.337Z,1.87
2018-12-24T08:20:36.025Z,2.00
2018-12-24T08:23:16.487Z,1.70
2018-12-24T08:25:57.406Z,2.33
2018-12-24T08:28:38.620Z,2.43
2018-12-24T08:31:19.888Z,3.00
2018-12-24T08:34:01.031Z,2.50
2018-12-24T08:36:41.996Z,2.47
2018-12-24T08:39:23.411Z,2.80
2018-12-24T08:42:04.241Z,1.73
2018-12-24T08:44:45.013Z,3.40
2018-12-24T08:47:25.344Z,3.47
2018-12-24T08:50:05.844Z,2.90
2018-12-24T08:52:46.696Z,3.60
2018-12-24T08:55:27.858Z,2.70
2018-12-24T08:58:08.350Z,3.80
2018-12-24T09:00:49.348Z,3.20
2018-12-24T09:03:30.487Z,3.33
2018-12-24T09:06:11.395Z,3.00
2018-12-24T09:09:26.324Z,3.30
2018-12-24T09:12:07.160Z,3.63
2018-12-24T09:14:50.296Z,3.43
2018-12-24T09:17:30.417Z,3.50
2018-12-24T09:20:10.988Z,3.73
2018-12-24T09:22:52.215Z,3.53
2018-12-24T09:25:32.731Z,5.00
2018-12-24T09:28:13.877Z,3.80
2018-12-24T09:30:54.904Z,3.43
2018-12-24T09:33:36.110Z,3.50
2018-12-24T09:36:16.664Z,3.90
2018-12-24T09:38:57.294Z,2.77
2018-12-24T09:41:37.898Z,4.13
2018-12-24T09:44:18.563Z,3.20
2018-12-24T09:46:59.029Z,3.13
2018-12-24T09:49:39.408Z,2.97
2018-12-24T09:52:21.592Z,2.97
2018-12-24T09:55:01.938Z,2.40
2018-12-24T09:57:42.791Z,1.83
2018-12-24T10:00:23.648Z,1.90
2018-12-24T10:03:04.189Z,3.03
2018-12-24T10:05:44.843Z,2.40
2018-12-24T10:08:25.128Z,3.00
2018-12-24T10:11:05.541Z,2.70
2018-12-24T10:13:46.051Z,3.00
2018-12-24T10:16:26.649Z,3.50
2018-12-24T10:19:07.332Z,3.37
2018-12-24T10:21:48.090Z,2.37
2018-12-24T10:24:28.676Z,2.30
2018-12-24T10:27:09.051Z,2.13
2018-12-24T10:29:49.848Z,2.33
2018-12-24T10:32:30.788Z,2.10
2018-12-24T10:35:11.445Z,1.80
2018-12-24T10:37:51.796Z,1.70
2018-12-24T10:40:34.278Z,2.50
2018-12-24T10:43:15.133Z,1.90
2018-12-24T10:45:56.003Z,2.20
2018-12-24T10:48:37.114Z,1.70
2018-12-24T10:51:18.046Z,2.57
2018-12-24T10:53:58.863Z,1.90
2018-12-24T10:56:39.973Z,2.37
2018-12-24T10:59:20.847Z,2.83
2018-12-24T11:02:01.105Z,2.07
2018-12-24T11:04:42.386Z,2.20
2018-12-24T11:07:23.014Z,2.83
2018-12-24T11:10:04.457Z,1.60
2018-12-24T11:12:45.531Z,1.63
2018-12-24T11:15:26.208Z,2.33
2018-12-24T11:18:07.489Z,2.00
2018-12-24T11:20:48.857Z,1.90
2018-12-24T11:23:30.676Z,1.70
2018-12-24T11:26:11.284Z,2.27
2018-12-24T11:28:54.029Z,2.00
2018-12-24T11:31:35.227Z,1.33
2018-12-24T11:34:15.908Z,1.60
2018-12-24T11:36:56.190Z,3.43
2018-12-24T11:39:37.254Z,1.60
2018-12-24T11:42:18.192Z,1.40
2018-12-24T11:44:58.788Z,2.00
2018-12-24T11:47:39.424Z,1.40
2018-12-24T11:50:20.016Z,1.90
2018-12-24T11:53:00.596Z,1.60
2018-12-24T11:55:41.457Z,2.10
2018-12-24T11:58:22.134Z,1.60
2018-12-24T12:01:02.945Z,2.00
2018-12-24T12:03:43.691Z,1.40
2018-12-24T12:06:24.292Z,1.30
2018-12-24T12:09:05.179Z,1.77
2018-12-24T12:11:43.940Z,1.70
2018-12-24T12:14:24.210Z,1.67
2018-12-24T12:17:05.281Z,1.70
2018-12-24T12:19:45.543Z,1.77
2018-12-24T12:22:26.241Z,2.10
2018-12-24T12:25:06.912Z,1.63
2018-12-24T12:27:47.680Z,2.13
2018-12-24T12:30:28.796Z,2.03
2018-12-24T12:33:11.564Z,1.60
2018-12-24T12:35:52.286Z,2.23
2018-12-24T12:38:33.077Z,1.93
2018-12-24T12:41:13.804Z,1.90
2018-12-24T12:43:54.788Z,2.00
2018-12-24T12:46:35.189Z,1.77
2018-12-24T12:49:15.957Z,2.33
2018-12-24T12:51:56.560Z,2.30
2018-12-24T12:54:37.485Z,2.00
2018-12-24T12:57:18.204Z,1.50
2018-12-24T12:59:58.875Z,1.57
2018-12-24T13:02:39.559Z,2.13
2018-12-24T13:05:20.356Z,2.30
2018-12-24T13:08:00.696Z,1.73
2018-12-24T13:10:41.611Z,2.07
2018-12-24T13:13:22.405Z,1.87
2018-12-24T13:16:03.253Z,2.60
2018-12-24T13:18:43.830Z,2.10
2018-12-24T13:21:24.387Z,1.63
2018-12-24T13:24:05.106Z,2.10
2018-12-24T13:26:45.823Z,2.03
2018-12-24T13:29:26.660Z,1.37
2018-12-24T13:32:07.309Z,2.80
2018-12-24T13:34:48.420Z,1.70
2018-12-24T13:37:29.209Z,1.30
2018-12-24T13:40:09.400Z,1.57
2018-12-24T13:42:50.076Z,1.77
2018-12-24T13:45:31.212Z,1.90
2018-12-24T13:48:11.644Z,1.40
2018-12-24T13:50:52.552Z,1.70
2018-12-24T13:53:33.119Z,1.67
2018-12-24T13:56:14.012Z,1.90
2018-12-24T13:58:54.708Z,1.70
2018-12-24T14:01:35.516Z,1.30
2018-12-24T14:04:16.548Z,1.60
2018-12-24T14:06:57.404Z,1.53
2018-12-24T14:09:37.745Z,2.17
2018-12-24T14:12:18.428Z,2.33
2018-12-24T14:14:59.127Z,2.37
2018-12-24T14:17:39.655Z,1.83
2018-12-24T14:20:20.221Z,2.00
2018-12-24T14:23:00.882Z,1.50
2018-12-24T14:25:41.840Z,2.00
2018-12-24T14:28:22.439Z,1.50
2018-12-24T14:31:03.045Z,1.77
2018-12-24T14:33:44.090Z,2.30
2018-12-24T14:36:25.425Z,2.80
2018-12-24T14:39:06.464Z,3.23
2018-12-24T14:41:47.027Z,2.40
2018-12-24T14:44:27.835Z,1.83
2018-12-24T14:47:08.408Z,2.90
2018-12-24T14:49:49.036Z,2.27
2018-12-24T14:52:29.924Z,2.30
2018-12-24T14:55:10.808Z,1.70
2018-12-24T14:57:51.712Z,1.70
2018-12-24T15:00:32.726Z,2.37
2018-12-24T15:03:13.575Z,4.00
2018-12-24T15:05:54.118Z,4.10
2018-12-24T15:08:34.725Z,4.07
2018-12-24T15:11:15.258Z,3.83
2018-12-24T15:13:56.075Z,4.27
2018-12-24T15:16:36.878Z,3.83
2018-12-24T15:19:17.390Z,3.33
2018-12-24T15:21:58.523Z,3.60
2018-12-24T15:24:39.313Z,2.87
2018-12-24T15:27:20.104Z,3.40
2018-12-24T15:30:00.947Z,5.50
2018-12-24T15:32:41.839Z,7.90
2018-12-24T15:35:22.239Z,7.00
2018-12-24T15:38:02.975Z,8.83
2018-12-24T15:40:43.496Z,11.90
2018-12-24T15:43:24.155Z,10.03
2018-12-24T15:46:04.907Z,7.30
2018-12-24T15:48:45.575Z,5.77
2018-12-24T15:51:26.367Z,4.50
2018-12-24T15:54:07.244Z,2.90
2018-12-24T15:56:48.003Z,3.07
2018-12-24T15:59:28.667Z,2.90
2018-12-24T16:02:09.397Z,2.50
2018-12-24T16:04:50.319Z,2.90
2018-12-24T16:07:30.974Z,2.80
2018-12-24T16:10:11.322Z,3.00
2018-12-24T16:14:00.290Z,2.80
2018-12-24T16:16:28.698Z,2.70
2018-12-24T16:18:57.136Z,4.03
2018-12-24T16:21:25.607Z,4.13
2018-12-24T16:23:54.046Z,5.70
2018-12-24T16:26:22.614Z,4.73
2018-12-24T16:28:51.055Z,7.77
2018-12-24T16:31:19.496Z,4.60
2018-12-24T16:33:48.321Z,4.37
2018-12-24T16:36:16.807Z,3.70
2018-12-24T16:40:12.118Z,4.03
2018-12-24T16:42:40.528Z,5.63
2018-12-24T16:45:09.003Z,4.87
2018-12-24T16:47:37.420Z,5.30
2018-12-24T16:50:05.955Z,6.83
2018-12-24T16:52:34.410Z,8.03
2018-12-24T16:55:02.906Z,6.60
2018-12-24T16:57:31.368Z,6.63
2018-12-24T16:59:59.811Z,8.53
2018-12-24T17:02:28.251Z,8.93
2018-12-24T17:04:56.696Z,7.53
2018-12-24T17:07:25.147Z,5.13
2018-12-24T17:09:53.605Z,6.60
2018-12-24T17:12:22.055Z,6.40
2018-12-24T17:14:50.602Z,6.93
2018-12-24T17:17:19.175Z,6.27
2018-12-24T17:19:47.628Z,6.70
2018-12-24T17:22:16.055Z,8.47
2018-12-24T17:24:44.507Z,7.73
2018-12-24T17:27:12.936Z,6.00
2018-12-24T17:29:41.379Z,7.80
2018-12-24T17:32:09.800Z,6.13
2018-12-24T17:34:38.261Z,6.77
2018-12-24T17:37:06.699Z,4.63
2018-12-24T17:39:35.199Z,5.07
2018-12-24T17:42:05.890Z,4.37
2018-12-24T17:44:34.424Z,4.10
2018-12-24T17:47:02.950Z,5.90
2018-12-24T17:49:31.383Z,6.63
2018-12-24T17:51:59.821Z,5.87
2018-12-24T17:54:28.233Z,7.03
2018-12-24T17:56:56.678Z,6.43
2018-12-24T17:59:25.147Z,6.77
2018-12-24T18:01:53.552Z,5.90
2018-12-24T18:04:22.005Z,5.23
2018-12-24T18:06:50.409Z,5.83
2018-12-24T18:09:18.863Z,4.47
2018-12-24T18:11:47.306Z,4.30
2018-12-24T18:14:15.776Z,4.47
2018-12-24T18:16:44.228Z,4.50
2018-12-24T18:19:12.664Z,4.33
2018-12-24T18:21:41.114Z,4.47
2018-12-24T18:24:09.534Z,4.00
2018-12-24T18:26:37.990Z,5.70
2018-12-24T18:29:06.415Z,4.20
2018-12-24T18:31:34.856Z,4.67
2018-12-24T18:34:03.283Z,4.97
2018-12-24T18:36:31.726Z,4.97
2018-12-24T18:39:00.152Z,5.57
2018-12-24T18:41:28.691Z,6.40
2018-12-24T18:43:57.152Z,11.27
2018-12-24T18:46:25.583Z,7.50
2018-12-24T18:48:54.070Z,10.90
2018-12-24T18:51:22.500Z,9.53
2018-12-24T18:53:50.980Z,9.73
2018-12-24T18:56:19.433Z,9.00
2018-12-24T18:58:47.951Z,7.40
2018-12-24T19:01:16.384Z,7.00
2018-12-24T19:03:44.823Z,7.97
2018-12-24T19:06:13.235Z,6.53
2018-12-24T19:08:41.756Z,8.07
2018-12-24T19:11:11.362Z,8.00
2018-12-24T19:13:40.317Z,7.80
2018-12-24T19:16:08.764Z,6.83
2018-12-24T19:18:37.213Z,5.60
2018-12-24T19:21:05.677Z,6.23
2018-12-24T19:23:34.293Z,7.30
2018-12-24T19:26:02.926Z,11.77
2018-12-24T19:28:31.350Z,11.40
2018-12-24T19:30:59.787Z,12.10
2018-12-24T19:33:28.241Z,9.30
2018-12-24T19:35:56.708Z,13.60
2018-12-24T19:38:25.169Z,8.10
2018-12-24T19:40:53.649Z,6.07
2018-12-24T19:43:22.161Z,5.83
2018-12-24T19:45:50.872Z,6.50
2018-12-24T19:48:19.288Z,6.40
2018-12-24T19:50:47.719Z,7.00
2018-12-24T19:53:16.139Z,6.20
2018-12-24T19:55:44.591Z,6.73
2018-12-24T19:58:13.091Z,5.97
2018-12-24T20:00:41.532Z,6.97
2018-12-24T20:03:09.967Z,6.50
2018-12-24T20:05:38.507Z,6.10
2018-12-24T20:08:06.961Z,6.47
2018-12-24T20:10:35.409Z,5.43
2018-12-24T20:13:03.814Z,6.13
2018-12-24T20:15:32.250Z,7.97
2018-12-24T20:18:00.679Z,7.60
2018-12-24T20:20:29.151Z,7.60
2018-12-24T20:22:57.564Z,7.30
2018-12-24T20:25:25.983Z,7.80
2018-12-24T20:27:54.423Z,7.20
2018-12-24T20:30:22.845Z,7.07
2018-12-24T20:32:51.274Z,6.13
2018-12-24T20:35:19.695Z,6.10
2018-12-24T20:37:48.163Z,7.90
2018-12-24T20:40:16.592Z,6.50
2018-12-24T20:42:45.018Z,5.93
2018-12-24T20:45:13.463Z,5.10
2018-12-24T20:47:41.894Z,6.37
2018-12-24T20:50:10.339Z,4.90
2018-12-24T20:52:38.774Z,5.60
2018-12-24T20:55:07.217Z,4.80
2018-12-24T20:57:35.628Z,5.80
2018-12-24T21:00:04.881Z,5.30
2018-12-24T21:02:33.332Z,5.47
2018-12-24T21:05:01.770Z,6.10
2018-12-24T21:07:30.211Z,6.07
2018-12-24T21:09:58.732Z,6.03
2018-12-24T21:12:27.160Z,5.57
2018-12-24T21:14:55.737Z,5.43
2018-12-24T21:17:24.162Z,6.10
2018-12-24T21:19:52.604Z,6.00
2018-12-24T21:22:21.023Z,5.30
2018-12-24T21:24:49.559Z,4.97
2018-12-24T21:27:17.972Z,4.90
2018-12-24T21:29:46.416Z,8.20
2018-12-24T21:32:14.831Z,12.30
2018-12-24T21:34:43.277Z,8.27
2018-12-24T21:37:11.695Z,6.47
2018-12-24T21:39:40.156Z,4.77
2018-12-24T21:42:08.595Z,5.80
2018-12-24T21:44:37.040Z,5.70
2018-12-24T21:47:05.495Z,5.10
2018-12-24T21:49:33.927Z,5.43
2018-12-24T21:52:02.360Z,4.93
2018-12-24T21:54:30.807Z,5.83
2018-12-24T21:56:59.300Z,5.20
2018-12-24T21:59:27.755Z,5.70
2018-12-24T22:01:56.194Z,4.60
2018-12-24T22:04:24.656Z,4.63
2018-12-24T22:06:53.096Z,5.17
2018-12-24T22:09:21.733Z,4.60
2018-12-24T22:11:50.248Z,3.80
2018-12-24T22:14:18.683Z,5.83
2018-12-24T22:16:47.096Z,5.00
2018-12-24T22:19:15.544Z,5.07
2018-12-24T22:21:43.959Z,4.93
2018-12-24T22:24:12.380Z,5.50
2018-12-24T22:26:40.843Z,4.87
2018-12-24T22:29:09.291Z,5.57
2018-12-24T22:31:37.730Z,4.50
2018-12-24T22:34:06.158Z,4.60
2018-12-24T22:36:34.597Z,4.83
2018-12-24T22:39:03.164Z,6.10
2018-12-24T22:41:31.639Z,5.90
2018-12-24T22:44:00.060Z,5.30
2018-12-24T22:46:28.491Z,5.47
2018-12-24T22:48:56.911Z,7.23
2018-12-24T22:51:25.353Z,7.27
2018-12-24T22:53:53.772Z,6.07
2018-12-24T22:56:22.295Z,6.20
2018-12-24T22:58:50.727Z,6.30
2018-12-24T23:01:19.158Z,5.60
2018-12-24T23:03:47.604Z,6.30
2018-12-24T23:06:16.016Z,6.77
2018-12-24T23:08:44.459Z,6.30
2018-12-24T23:11:12.905Z,7.20
2018-12-24T23:13:41.322Z,6.53
2018-12-24T23:16:09.776Z,7.17
2018-12-24T23:18:38.194Z,7.50
2018-12-24T23:21:06.649Z,6.57
2018-12-24T23:23:35.088Z,5.93
2018-12-24T23:26:03.500Z,5.87
2018-12-24T23:28:31.923Z,5.73
2018-12-24T23:31:00.371Z,6.90
2018-12-24T23:33:28.871Z,6.00
2018-12-24T23:35:57.283Z,5.70
2018-12-24T23:38:25.739Z,6.60
2018-12-24T23:40:54.151Z,6.80
2018-12-24T23:43:22.572Z,6.67
2018-12-24T23:45:51.056Z,6.63
2018-12-24T23:48:38.847Z,7.63
2018-12-24T23:51:07.274Z,7.33
2018-12-24T23:53:35.722Z,6.80
2018-12-24T23:56:04.154Z,6.70
2018-12-24T23:58:32.638Z,6.80
